sensor_id;sensor_type;location;lat;lon;timestamp;P1;durP1;ratioP1;P2;durP2;ratioP2
26864;SDS011;40618;51.166;10.322;2024-01-30T00:01:35;5.78;;;4.30;;
26864;SDS011;40618;51.166;10.322;2024-01-30T00:04:01;8.10;;;4.50;;
26864;SDS011;40618;51.166;10.322;2024-01-30T00:06:27;8.20;;;3.83;;
26864;SDS011;40618;51.166;10.322;2024-01-30T00:08:53;7.00;;;4.55;;
26864;SDS011;40618;51.166;10.322;2024-01-30T00:11:18;9.00;;;4.90;;
26864;SDS011;40618;51.166;10.322;2024-01-30T00:13:44;6.57;;;4.22;;
26864;SDS011;40618;51.166;10.322;2024-01-30T00:16:19;8.85;;;4.15;;
26864;SDS011;40618;51.166;10.322;2024-01-30T00:18:46;6.43;;;3.17;;
26864;SDS011;40618;51.166;10.322;2024-01-30T00:21:13;5.32;;;3.10;;
26864;SDS011;40618;51.166;10.322;2024-01-30T00:23:39;7.47;;;3.13;;
26864;SDS011;40618;51.166;10.322;2024-01-30T00:26:05;4.10;;;2.60;;
26864;SDS011;40618;51.166;10.322;2024-01-30T00:28:31;4.82;;;2.85;;
26864;SDS011;40618;51.166;10.322;2024-01-30T00:30:56;4.38;;;3.05;;
26864;SDS011;40618;51.166;10.322;2024-01-30T00:33:22;5.15;;;3.22;;
26864;SDS011;40618;51.166;10.322;2024-01-30T00:35:47;5.78;;;3.35;;
26864;SDS011;40618;51.166;10.322;2024-01-30T00:38:13;6.25;;;3.05;;
26864;SDS011;40618;51.166;10.322;2024-01-30T00:40:38;4.45;;;3.03;;
26864;SDS011;40618;51.166;10.322;2024-01-30T00:43:05;5.65;;;3.15;;
26864;SDS011;40618;51.166;10.322;2024-01-30T00:45:31;3.92;;;2.88;;
26864;SDS011;40618;51.166;10.322;2024-01-30T00:47:56;5.30;;;3.05;;
26864;SDS011;40618;51.166;10.322;2024-01-30T00:50:22;6.88;;;3.45;;
26864;SDS011;40618;51.166;10.322;2024-01-30T00:52:47;4.72;;;2.97;;
26864;SDS011;40618;51.166;10.322;2024-01-30T00:55:13;5.82;;;3.50;;
26864;SDS011;40618;51.166;10.322;2024-01-30T00:57:39;6.93;;;3.90;;
26864;SDS011;40618;51.166;10.322;2024-01-30T01:00:05;8.00;;;4.00;;
26864;SDS011;40618;51.166;10.322;2024-01-30T01:02:36;6.63;;;3.38;;
26864;SDS011;40618;51.166;10.322;2024-01-30T01:05:02;5.03;;;3.28;;
26864;SDS011;40618;51.166;10.322;2024-01-30T01:07:28;5.28;;;3.15;;
26864;SDS011;40618;51.166;10.322;2024-01-30T01:09:54;5.03;;;3.35;;
26864;SDS011;40618;51.166;10.322;2024-01-30T01:12:19;6.25;;;3.05;;
26864;SDS011;40618;51.166;10.322;2024-01-30T01:14:45;5.72;;;3.58;;
26864;SDS011;40618;51.166;10.322;2024-01-30T01:17:11;5.55;;;3.28;;
26864;SDS011;40618;51.166;10.322;2024-01-30T01:19:37;6.22;;;3.13;;
26864;SDS011;40618;51.166;10.322;2024-01-30T01:22:03;5.55;;;3.42;;
26864;SDS011;40618;51.166;10.322;2024-01-30T01:24:30;5.63;;;2.90;;
26864;SDS011;40618;51.166;10.322;2024-01-30T01:26:58;5.38;;;3.15;;
26864;SDS011;40618;51.166;10.322;2024-01-30T01:29:24;6.30;;;3.17;;
26864;SDS011;40618;51.166;10.322;2024-01-30T01:31:56;4.57;;;3.13;;
26864;SDS011;40618;51.166;10.322;2024-01-30T01:34:22;5.00;;;2.78;;
26864;SDS011;40618;51.166;10.322;2024-01-30T01:36:51;5.70;;;3.10;;
26864;SDS011;40618;51.166;10.322;2024-01-30T01:39:20;6.65;;;3.00;;
26864;SDS011;40618;51.166;10.322;2024-01-30T01:41:47;6.00;;;3.47;;
26864;SDS011;40618;51.166;10.322;2024-01-30T01:44:13;7.35;;;3.13;;
26864;SDS011;40618;51.166;10.322;2024-01-30T01:46:39;6.95;;;3.30;;
26864;SDS011;40618;51.166;10.322;2024-01-30T01:49:05;7.53;;;3.40;;
26864;SDS011;40618;51.166;10.322;2024-01-30T01:51:33;6.03;;;3.42;;
26864;SDS011;40618;51.166;10.322;2024-01-30T01:54:01;5.47;;;3.15;;
26864;SDS011;40618;51.166;10.322;2024-01-30T01:56:30;3.92;;;2.47;;
26864;SDS011;40618;51.166;10.322;2024-01-30T01:59:05;5.45;;;3.83;;
26864;SDS011;40618;51.166;10.322;2024-01-30T02:01:33;5.32;;;3.53;;
26864;SDS011;40618;51.166;10.322;2024-01-30T02:04:01;5.78;;;3.30;;
26864;SDS011;40618;51.166;10.322;2024-01-30T02:06:27;6.97;;;3.83;;
26864;SDS011;40618;51.166;10.322;2024-01-30T02:08:53;4.75;;;2.85;;
26864;SDS011;40618;51.166;10.322;2024-01-30T02:11:20;5.20;;;3.35;;
26864;SDS011;40618;51.166;10.322;2024-01-30T02:13:47;4.65;;;2.92;;
26864;SDS011;40618;51.166;10.322;2024-01-30T02:16:13;5.65;;;3.33;;
26864;SDS011;40618;51.166;10.322;2024-01-30T02:18:39;6.00;;;2.97;;
26864;SDS011;40618;51.166;10.322;2024-01-30T02:21:11;5.28;;;2.95;;
26864;SDS011;40618;51.166;10.322;2024-01-30T02:23:37;6.22;;;3.10;;
26864;SDS011;40618;51.166;10.322;2024-01-30T02:26:05;7.57;;;3.92;;
26864;SDS011;40618;51.166;10.322;2024-01-30T02:28:31;6.53;;;3.03;;
26864;SDS011;40618;51.166;10.322;2024-01-30T02:30:57;5.88;;;3.40;;
26864;SDS011;40618;51.166;10.322;2024-01-30T02:33:22;4.70;;;2.90;;
26864;SDS011;40618;51.166;10.322;2024-01-30T02:35:48;6.20;;;3.10;;
26864;SDS011;40618;51.166;10.322;2024-01-30T02:38:15;6.00;;;3.80;;
26864;SDS011;40618;51.166;10.322;2024-01-30T02:40:41;5.60;;;3.15;;
26864;SDS011;40618;51.166;10.322;2024-01-30T02:43:07;5.15;;;3.38;;
26864;SDS011;40618;51.166;10.322;2024-01-30T02:45:33;5.97;;;3.40;;
26864;SDS011;40618;51.166;10.322;2024-01-30T02:47:58;5.40;;;3.30;;
26864;SDS011;40618;51.166;10.322;2024-01-30T02:50:24;5.85;;;3.65;;
26864;SDS011;40618;51.166;10.322;2024-01-30T02:52:49;6.72;;;3.60;;
26864;SDS011;40618;51.166;10.322;2024-01-30T02:55:15;4.53;;;3.15;;
26864;SDS011;40618;51.166;10.322;2024-01-30T02:57:43;5.57;;;3.55;;
26864;SDS011;40618;51.166;10.322;2024-01-30T03:00:08;6.70;;;3.65;;
26864;SDS011;40618;51.166;10.322;2024-01-30T03:02:35;5.57;;;3.63;;
26864;SDS011;40618;51.166;10.322;2024-01-30T03:05:02;6.43;;;3.65;;
26864;SDS011;40618;51.166;10.322;2024-01-30T03:07:31;7.07;;;3.72;;
26864;SDS011;40618;51.166;10.322;2024-01-30T03:09:58;5.80;;;3.83;;
26864;SDS011;40618;51.166;10.322;2024-01-30T03:12:23;7.38;;;3.88;;
26864;SDS011;40618;51.166;10.322;2024-01-30T03:14:49;4.70;;;3.10;;
26864;SDS011;40618;51.166;10.322;2024-01-30T03:17:14;6.22;;;3.88;;
26864;SDS011;40618;51.166;10.322;2024-01-30T03:19:40;6.22;;;3.88;;
26864;SDS011;40618;51.166;10.322;2024-01-30T03:22:06;6.57;;;3.67;;
26864;SDS011;40618;51.166;10.322;2024-01-30T03:24:31;8.40;;;3.10;;
26864;SDS011;40618;51.166;10.322;2024-01-30T03:26:57;5.30;;;3.55;;
26864;SDS011;40618;51.166;10.322;2024-01-30T03:29:22;8.00;;;3.83;;
26864;SDS011;40618;51.166;10.322;2024-01-30T03:31:48;5.88;;;3.10;;
26864;SDS011;40618;51.166;10.322;2024-01-30T03:34:14;5.47;;;2.85;;
26864;SDS011;40618;51.166;10.322;2024-01-30T03:36:39;6.82;;;3.53;;
26864;SDS011;40618;51.166;10.322;2024-01-30T03:39:05;7.78;;;3.35;;
26864;SDS011;40618;51.166;10.322;2024-01-30T03:41:31;5.43;;;3.28;;
26864;SDS011;40618;51.166;10.322;2024-01-30T03:43:57;11.35;;;3.15;;
26864;SDS011;40618;51.166;10.322;2024-01-30T03:46:23;5.35;;;3.50;;
26864;SDS011;40618;51.166;10.322;2024-01-30T03:48:49;5.35;;;3.00;;
26864;SDS011;40618;51.166;10.322;2024-01-30T03:51:15;5.30;;;3.25;;
26864;SDS011;40618;51.166;10.322;2024-01-30T03:53:41;8.77;;;3.42;;
26864;SDS011;40618;51.166;10.322;2024-01-30T03:56:07;6.45;;;3.58;;
26864;SDS011;40618;51.166;10.322;2024-01-30T03:58:34;5.60;;;3.08;;
26864;SDS011;40618;51.166;10.322;2024-01-30T04:01:00;6.25;;;3.55;;
26864;SDS011;40618;51.166;10.322;2024-01-30T04:03:25;6.78;;;3.75;;
26864;SDS011;40618;51.166;10.322;2024-01-30T04:05:51;8.23;;;3.50;;
26864;SDS011;40618;51.166;10.322;2024-01-30T04:08:18;5.53;;;3.28;;
26864;SDS011;40618;51.166;10.322;2024-01-30T04:10:44;5.78;;;3.28;;
26864;SDS011;40618;51.166;10.322;2024-01-30T04:13:10;5.35;;;4.00;;
26864;SDS011;40618;51.166;10.322;2024-01-30T04:15:35;6.22;;;4.18;;
26864;SDS011;40618;51.166;10.322;2024-01-30T04:18:01;8.80;;;4.18;;
26864;SDS011;40618;51.166;10.322;2024-01-30T04:20:27;6.22;;;3.92;;
26864;SDS011;40618;51.166;10.322;2024-01-30T04:22:54;10.25;;;4.35;;
26864;SDS011;40618;51.166;10.322;2024-01-30T04:25:19;6.88;;;4.00;;
26864;SDS011;40618;51.166;10.322;2024-01-30T04:27:45;6.32;;;3.75;;
26864;SDS011;40618;51.166;10.322;2024-01-30T04:30:11;6.68;;;4.45;;
26864;SDS011;40618;51.166;10.322;2024-01-30T04:32:37;7.45;;;3.80;;
26864;SDS011;40618;51.166;10.322;2024-01-30T04:35:03;5.80;;;3.60;;
26864;SDS011;40618;51.166;10.322;2024-01-30T04:37:29;7.10;;;3.83;;
26864;SDS011;40618;51.166;10.322;2024-01-30T04:39:54;5.82;;;3.17;;
26864;SDS011;40618;51.166;10.322;2024-01-30T04:42:20;5.57;;;3.60;;
26864;SDS011;40618;51.166;10.322;2024-01-30T04:44:46;6.78;;;3.28;;
26864;SDS011;40618;51.166;10.322;2024-01-30T04:47:11;6.93;;;3.92;;
26864;SDS011;40618;51.166;10.322;2024-01-30T04:49:40;5.60;;;3.53;;
26864;SDS011;40618;51.166;10.322;2024-01-30T04:52:07;6.72;;;3.67;;
26864;SDS011;40618;51.166;10.322;2024-01-30T04:54:33;9.10;;;3.28;;
26864;SDS011;40618;51.166;10.322;2024-01-30T04:57:00;5.55;;;3.13;;
26864;SDS011;40618;51.166;10.322;2024-01-30T04:59:26;5.70;;;3.53;;
26864;SDS011;40618;51.166;10.322;2024-01-30T05:01:52;4.78;;;3.10;;
26864;SDS011;40618;51.166;10.322;2024-01-30T05:04:18;4.63;;;3.33;;
26864;SDS011;40618;51.166;10.322;2024-01-30T05:06:44;7.13;;;3.60;;
26864;SDS011;40618;51.166;10.322;2024-01-30T05:09:10;5.95;;;3.33;;
26864;SDS011;40618;51.166;10.322;2024-01-30T05:11:36;5.72;;;3.67;;
26864;SDS011;40618;51.166;10.322;2024-01-30T05:14:06;5.38;;;3.13;;
26864;SDS011;40618;51.166;10.322;2024-01-30T05:16:36;6.43;;;3.55;;
26864;SDS011;40618;51.166;10.322;2024-01-30T05:19:02;8.20;;;3.67;;
26864;SDS011;40618;51.166;10.322;2024-01-30T05:21:28;8.00;;;3.45;;
26864;SDS011;40618;51.166;10.322;2024-01-30T05:23:53;7.30;;;4.10;;
26864;SDS011;40618;51.166;10.322;2024-01-30T05:26:19;6.80;;;3.40;;
26864;SDS011;40618;51.166;10.322;2024-01-30T05:28:44;6.15;;;3.40;;
26864;SDS011;40618;51.166;10.322;2024-01-30T05:31:10;8.68;;;4.50;;
26864;SDS011;40618;51.166;10.322;2024-01-30T05:33:36;7.05;;;3.67;;
26864;SDS011;40618;51.166;10.322;2024-01-30T05:36:02;5.50;;;3.45;;
26864;SDS011;40618;51.166;10.322;2024-01-30T05:38:28;5.57;;;3.67;;
26864;SDS011;40618;51.166;10.322;2024-01-30T05:40:54;9.25;;;4.10;;
26864;SDS011;40618;51.166;10.322;2024-01-30T05:43:20;6.63;;;3.58;;
26864;SDS011;40618;51.166;10.322;2024-01-30T05:45:45;4.95;;;3.25;;
26864;SDS011;40618;51.166;10.322;2024-01-30T05:48:11;5.88;;;3.78;;
26864;SDS011;40618;51.166;10.322;2024-01-30T05:50:36;6.03;;;3.40;;
26864;SDS011;40618;51.166;10.322;2024-01-30T05:53:02;6.20;;;3.60;;
26864;SDS011;40618;51.166;10.322;2024-01-30T05:55:28;7.40;;;3.60;;
26864;SDS011;40618;51.166;10.322;2024-01-30T05:57:53;9.57;;;4.20;;
26864;SDS011;40618;51.166;10.322;2024-01-30T06:00:19;13.05;;;4.97;;
26864;SDS011;40618;51.166;10.322;2024-01-30T06:02:44;6.30;;;3.72;;
26864;SDS011;40618;51.166;10.322;2024-01-30T06:05:10;18.33;;;7.28;;
26864;SDS011;40618;51.166;10.322;2024-01-30T06:07:35;14.48;;;6.22;;
26864;SDS011;40618;51.166;10.322;2024-01-30T06:10:01;9.13;;;4.60;;
26864;SDS011;40618;51.166;10.322;2024-01-30T06:12:28;10.38;;;4.90;;
26864;SDS011;40618;51.166;10.322;2024-01-30T06:14:54;10.63;;;5.13;;
26864;SDS011;40618;51.166;10.322;2024-01-30T06:17:22;9.50;;;5.32;;
26864;SDS011;40618;51.166;10.322;2024-01-30T06:19:48;9.43;;;4.70;;
26864;SDS011;40618;51.166;10.322;2024-01-30T06:22:14;8.30;;;3.97;;
26864;SDS011;40618;51.166;10.322;2024-01-30T06:24:40;6.05;;;3.88;;
26864;SDS011;40618;51.166;10.322;2024-01-30T06:27:06;6.70;;;4.32;;
26864;SDS011;40618;51.166;10.322;2024-01-30T06:29:31;7.90;;;4.07;;
26864;SDS011;40618;51.166;10.322;2024-01-30T06:31:57;8.50;;;4.32;;
26864;SDS011;40618;51.166;10.322;2024-01-30T06:34:23;14.48;;;5.35;;
26864;SDS011;40618;51.166;10.322;2024-01-30T06:36:48;9.50;;;4.78;;
26864;SDS011;40618;51.166;10.322;2024-01-30T06:39:14;8.73;;;4.53;;
26864;SDS011;40618;51.166;10.322;2024-01-30T06:41:39;11.88;;;5.88;;
26864;SDS011;40618;51.166;10.322;2024-01-30T06:44:05;15.35;;;6.90;;
26864;SDS011;40618;51.166;10.322;2024-01-30T06:46:33;18.35;;;9.32;;
26864;SDS011;40618;51.166;10.322;2024-01-30T06:48:59;14.40;;;7.10;;
26864;SDS011;40618;51.166;10.322;2024-01-30T06:51:24;14.77;;;7.88;;
26864;SDS011;40618;51.166;10.322;2024-01-30T06:53:50;13.18;;;6.32;;
26864;SDS011;40618;51.166;10.322;2024-01-30T06:56:16;14.65;;;7.85;;
26864;SDS011;40618;51.166;10.322;2024-01-30T06:58:45;8.98;;;4.30;;
26864;SDS011;40618;51.166;10.322;2024-01-30T07:01:15;12.47;;;6.73;;
26864;SDS011;40618;51.166;10.322;2024-01-30T07:03:41;20.42;;;10.27;;
26864;SDS011;40618;51.166;10.322;2024-01-30T07:06:08;24.00;;;12.43;;
26864;SDS011;40618;51.166;10.322;2024-01-30T07:08:35;21.05;;;9.18;;
26864;SDS011;40618;51.166;10.322;2024-01-30T07:11:02;13.35;;;6.95;;
26864;SDS011;40618;51.166;10.322;2024-01-30T07:13:28;10.77;;;5.65;;
26864;SDS011;40618;51.166;10.322;2024-01-30T07:15:54;10.25;;;5.75;;
26864;SDS011;40618;51.166;10.322;2024-01-30T07:18:19;10.85;;;5.68;;
26864;SDS011;40618;51.166;10.322;2024-01-30T07:20:45;12.70;;;6.72;;
26864;SDS011;40618;51.166;10.322;2024-01-30T07:23:12;9.13;;;5.55;;
26864;SDS011;40618;51.166;10.322;2024-01-30T07:25:40;8.45;;;5.03;;
26864;SDS011;40618;51.166;10.322;2024-01-30T07:28:07;10.05;;;5.43;;
26864;SDS011;40618;51.166;10.322;2024-01-30T07:33:03;7.72;;;4.65;;
26864;SDS011;40618;51.166;10.322;2024-01-30T07:35:28;9.70;;;4.68;;
26864;SDS011;40618;51.166;10.322;2024-01-30T07:37:54;8.00;;;5.70;;
26864;SDS011;40618;51.166;10.322;2024-01-30T07:40:20;10.93;;;6.70;;
26864;SDS011;40618;51.166;10.322;2024-01-30T07:42:45;18.88;;;8.88;;
26864;SDS011;40618;51.166;10.322;2024-01-30T07:45:13;30.25;;;14.90;;
26864;SDS011;40618;51.166;10.322;2024-01-30T07:47:38;29.45;;;14.38;;
26864;SDS011;40618;51.166;10.322;2024-01-30T07:50:04;21.75;;;12.75;;
26864;SDS011;40618;51.166;10.322;2024-01-30T07:52:30;18.70;;;10.30;;
26864;SDS011;40618;51.166;10.322;2024-01-30T07:54:56;15.20;;;9.45;;
26864;SDS011;40618;51.166;10.322;2024-01-30T07:57:21;14.90;;;7.78;;
26864;SDS011;40618;51.166;10.322;2024-01-30T07:59:47;11.88;;;6.82;;
26864;SDS011;40618;51.166;10.322;2024-01-30T08:02:12;12.02;;;6.53;;
26864;SDS011;40618;51.166;10.322;2024-01-30T08:04:38;9.77;;;5.72;;
26864;SDS011;40618;51.166;10.322;2024-01-30T08:07:04;11.25;;;6.07;;
26864;SDS011;40618;51.166;10.322;2024-01-30T08:09:30;11.10;;;6.20;;
26864;SDS011;40618;51.166;10.322;2024-01-30T08:11:55;21.35;;;10.82;;
26864;SDS011;40618;51.166;10.322;2024-01-30T08:14:21;18.27;;;9.38;;
26864;SDS011;40618;51.166;10.322;2024-01-30T08:16:47;15.35;;;8.05;;
26864;SDS011;40618;51.166;10.322;2024-01-30T08:19:14;13.15;;;7.28;;
26864;SDS011;40618;51.166;10.322;2024-01-30T08:21:40;12.05;;;6.68;;
26864;SDS011;40618;51.166;10.322;2024-01-30T08:24:06;9.88;;;5.22;;
26864;SDS011;40618;51.166;10.322;2024-01-30T08:26:33;13.07;;;7.45;;
26864;SDS011;40618;51.166;10.322;2024-01-30T08:28:59;15.63;;;9.55;;
26864;SDS011;40618;51.166;10.322;2024-01-30T08:31:24;11.82;;;5.97;;
26864;SDS011;40618;51.166;10.322;2024-01-30T08:33:50;13.98;;;8.20;;
26864;SDS011;40618;51.166;10.322;2024-01-30T08:36:16;21.38;;;13.27;;
26864;SDS011;40618;51.166;10.322;2024-01-30T08:38:42;18.40;;;11.10;;
26864;SDS011;40618;51.166;10.322;2024-01-30T08:41:08;15.60;;;8.63;;
26864;SDS011;40618;51.166;10.322;2024-01-30T08:43:34;10.65;;;7.28;;
26864;SDS011;40618;51.166;10.322;2024-01-30T08:46:00;23.35;;;13.25;;
26864;SDS011;40618;51.166;10.322;2024-01-30T08:48:26;24.13;;;13.20;;
26864;SDS011;40618;51.166;10.322;2024-01-30T08:50:52;23.20;;;12.75;;
26864;SDS011;40618;51.166;10.322;2024-01-30T08:53:18;12.93;;;8.05;;
26864;SDS011;40618;51.166;10.322;2024-01-30T08:55:44;17.17;;;7.05;;
26864;SDS011;40618;51.166;10.322;2024-01-30T08:58:09;11.20;;;6.40;;
26864;SDS011;40618;51.166;10.322;2024-01-30T09:00:35;11.90;;;7.78;;
26864;SDS011;40618;51.166;10.322;2024-01-30T09:03:01;9.57;;;6.57;;
26864;SDS011;40618;51.166;10.322;2024-01-30T09:05:28;8.30;;;5.22;;
26864;SDS011;40618;51.166;10.322;2024-01-30T09:07:53;12.80;;;5.55;;
26864;SDS011;40618;51.166;10.322;2024-01-30T09:10:19;7.90;;;5.45;;
26864;SDS011;40618;51.166;10.322;2024-01-30T09:12:45;12.27;;;6.07;;
26864;SDS011;40618;51.166;10.322;2024-01-30T09:15:12;9.80;;;5.30;;
26864;SDS011;40618;51.166;10.322;2024-01-30T09:17:37;7.85;;;4.75;;
26864;SDS011;40618;51.166;10.322;2024-01-30T09:20:03;8.73;;;5.03;;
26864;SDS011;40618;51.166;10.322;2024-01-30T09:22:30;16.38;;;6.07;;
26864;SDS011;40618;51.166;10.322;2024-01-30T09:24:56;13.75;;;6.18;;
26864;SDS011;40618;51.166;10.322;2024-01-30T09:27:22;10.05;;;5.82;;
26864;SDS011;40618;51.166;10.322;2024-01-30T09:29:48;9.40;;;5.85;;
26864;SDS011;40618;51.166;10.322;2024-01-30T09:32:14;9.32;;;5.15;;
26864;SDS011;40618;51.166;10.322;2024-01-30T09:34:40;8.60;;;5.03;;
26864;SDS011;40618;51.166;10.322;2024-01-30T09:37:06;7.93;;;4.72;;
26864;SDS011;40618;51.166;10.322;2024-01-30T09:39:32;7.47;;;5.30;;
26864;SDS011;40618;51.166;10.322;2024-01-30T09:42:04;8.52;;;4.85;;
26864;SDS011;40618;51.166;10.322;2024-01-30T09:44:55;9.55;;;5.57;;
26864;SDS011;40618;51.166;10.322;2024-01-30T09:47:21;8.80;;;4.80;;
26864;SDS011;40618;51.166;10.322;2024-01-30T09:49:47;8.90;;;5.18;;
26864;SDS011;40618;51.166;10.322;2024-01-30T09:52:13;10.25;;;5.07;;
26864;SDS011;40618;51.166;10.322;2024-01-30T09:54:40;6.88;;;5.35;;
26864;SDS011;40618;51.166;10.322;2024-01-30T09:57:07;7.43;;;5.13;;
26864;SDS011;40618;51.166;10.322;2024-01-30T09:59:33;9.23;;;5.28;;
26864;SDS011;40618;51.166;10.322;2024-01-30T10:01:59;8.32;;;5.20;;
26864;SDS011;40618;51.166;10.322;2024-01-30T10:04:25;9.15;;;5.57;;
26864;SDS011;40618;51.166;10.322;2024-01-30T10:06:51;11.93;;;7.28;;
26864;SDS011;40618;51.166;10.322;2024-01-30T10:09:17;12.95;;;6.60;;
26864;SDS011;40618;51.166;10.322;2024-01-30T10:11:42;8.40;;;6.05;;
26864;SDS011;40618;51.166;10.322;2024-01-30T10:14:08;7.68;;;4.80;;
26864;SDS011;40618;51.166;10.322;2024-01-30T10:16:34;13.07;;;5.93;;
26864;SDS011;40618;51.166;10.322;2024-01-30T10:19:00;10.45;;;5.63;;
26864;SDS011;40618;51.166;10.322;2024-01-30T10:21:26;7.47;;;4.80;;
26864;SDS011;40618;51.166;10.322;2024-01-30T10:23:52;8.20;;;5.40;;
26864;SDS011;40618;51.166;10.322;2024-01-30T10:26:18;6.93;;;4.57;;
26864;SDS011;40618;51.166;10.322;2024-01-30T10:28:44;10.50;;;5.25;;
26864;SDS011;40618;51.166;10.322;2024-01-30T10:31:09;10.30;;;4.88;;
26864;SDS011;40618;51.166;10.322;2024-01-30T10:33:35;8.05;;;5.28;;
26864;SDS011;40618;51.166;10.322;2024-01-30T10:36:01;8.45;;;4.93;;
26864;SDS011;40618;51.166;10.322;2024-01-30T10:38:29;6.60;;;4.65;;
26864;SDS011;40618;51.166;10.322;2024-01-30T10:40:57;8.80;;;5.20;;
26864;SDS011;40618;51.166;10.322;2024-01-30T10:43:31;7.40;;;5.32;;
26864;SDS011;40618;51.166;10.322;2024-01-30T10:46:06;6.97;;;5.20;;
26864;SDS011;40618;51.166;10.322;2024-01-30T10:48:43;6.60;;;4.85;;
26864;SDS011;40618;51.166;10.322;2024-01-30T10:51:18;7.75;;;5.18;;
26864;SDS011;40618;51.166;10.322;2024-01-30T10:53:47;7.68;;;4.80;;
26864;SDS011;40618;51.166;10.322;2024-01-30T10:56:14;7.05;;;5.03;;
26864;SDS011;40618;51.166;10.322;2024-01-30T10:58:42;7.95;;;5.07;;
26864;SDS011;40618;51.166;10.322;2024-01-30T11:01:07;9.35;;;5.32;;
26864;SDS011;40618;51.166;10.322;2024-01-30T11:03:34;10.00;;;6.43;;
26864;SDS011;40618;51.166;10.322;2024-01-30T11:06:01;7.50;;;4.80;;
26864;SDS011;40618;51.166;10.322;2024-01-30T11:08:28;8.73;;;5.38;;
26864;SDS011;40618;51.166;10.322;2024-01-30T11:10:57;9.65;;;5.50;;
26864;SDS011;40618;51.166;10.322;2024-01-30T11:13:27;7.95;;;5.43;;
26864;SDS011;40618;51.166;10.322;2024-01-30T11:15:55;9.65;;;5.68;;
26864;SDS011;40618;51.166;10.322;2024-01-30T11:18:24;12.88;;;6.35;;
26864;SDS011;40618;51.166;10.322;2024-01-30T11:20:50;10.63;;;5.85;;
26864;SDS011;40618;51.166;10.322;2024-01-30T11:23:16;10.40;;;5.15;;
26864;SDS011;40618;51.166;10.322;2024-01-30T11:25:43;8.32;;;5.70;;
26864;SDS011;40618;51.166;10.322;2024-01-30T11:28:16;10.13;;;6.18;;
26864;SDS011;40618;51.166;10.322;2024-01-30T11:30:42;8.27;;;5.32;;
26864;SDS011;40618;51.166;10.322;2024-01-30T11:33:09;7.15;;;5.38;;
26864;SDS011;40618;51.166;10.322;2024-01-30T11:35:45;8.43;;;5.22;;
26864;SDS011;40618;51.166;10.322;2024-01-30T11:38:12;10.65;;;6.50;;
26864;SDS011;40618;51.166;10.322;2024-01-30T11:40:39;9.93;;;5.88;;
26864;SDS011;40618;51.166;10.322;2024-01-30T11:43:06;8.57;;;5.60;;
26864;SDS011;40618;51.166;10.322;2024-01-30T11:45:34;8.43;;;6.13;;
26864;SDS011;40618;51.166;10.322;2024-01-30T11:48:01;10.43;;;5.80;;
26864;SDS011;40618;51.166;10.322;2024-01-30T11:50:33;8.63;;;5.63;;
26864;SDS011;40618;51.166;10.322;2024-01-30T11:52:59;8.57;;;5.05;;
26864;SDS011;40618;51.166;10.322;2024-01-30T11:55:25;8.18;;;4.90;;
26864;SDS011;40618;51.166;10.322;2024-01-30T11:57:54;9.32;;;6.22;;
26864;SDS011;40618;51.166;10.322;2024-01-30T12:02:51;8.75;;;6.05;;
26864;SDS011;40618;51.166;10.322;2024-01-30T12:05:22;12.90;;;7.75;;
26864;SDS011;40618;51.166;10.322;2024-01-30T12:07:49;8.73;;;6.13;;
26864;SDS011;40618;51.166;10.322;2024-01-30T12:10:15;12.23;;;6.63;;
26864;SDS011;40618;51.166;10.322;2024-01-30T12:12:43;11.55;;;5.75;;
26864;SDS011;40618;51.166;10.322;2024-01-30T12:15:11;7.53;;;5.28;;
26864;SDS011;40618;51.166;10.322;2024-01-30T12:17:38;7.65;;;5.18;;
26864;SDS011;40618;51.166;10.322;2024-01-30T12:20:07;9.23;;;5.47;;
26864;SDS011;40618;51.166;10.322;2024-01-30T12:22:41;9.93;;;5.85;;
26864;SDS011;40618;51.166;10.322;2024-01-30T12:25:10;11.80;;;6.30;;
26864;SDS011;40618;51.166;10.322;2024-01-30T12:27:46;14.93;;;8.88;;
26864;SDS011;40618;51.166;10.322;2024-01-30T12:30:16;10.32;;;6.05;;
26864;SDS011;40618;51.166;10.322;2024-01-30T12:32:44;8.75;;;5.80;;
26864;SDS011;40618;51.166;10.322;2024-01-30T12:35:11;10.68;;;6.97;;
26864;SDS011;40618;51.166;10.322;2024-01-30T12:37:39;16.17;;;7.97;;
26864;SDS011;40618;51.166;10.322;2024-01-30T12:40:09;10.25;;;6.57;;
26864;SDS011;40618;51.166;10.322;2024-01-30T12:42:36;10.23;;;6.45;;
26864;SDS011;40618;51.166;10.322;2024-01-30T12:45:02;12.10;;;5.80;;
26864;SDS011;40618;51.166;10.322;2024-01-30T12:47:29;9.75;;;5.72;;
26864;SDS011;40618;51.166;10.322;2024-01-30T12:49:55;8.50;;;5.32;;
26864;SDS011;40618;51.166;10.322;2024-01-30T12:52:21;8.38;;;5.05;;
26864;SDS011;40618;51.166;10.322;2024-01-30T12:54:48;6.97;;;4.75;;
26864;SDS011;40618;51.166;10.322;2024-01-30T12:57:14;10.27;;;5.70;;
26864;SDS011;40618;51.166;10.322;2024-01-30T12:59:41;8.05;;;5.47;;
26864;SDS011;40618;51.166;10.322;2024-01-30T13:02:08;7.85;;;5.63;;
26864;SDS011;40618;51.166;10.322;2024-01-30T13:04:34;7.40;;;5.45;;
26864;SDS011;40618;51.166;10.322;2024-01-30T13:07:00;10.25;;;5.97;;
26864;SDS011;40618;51.166;10.322;2024-01-30T13:09:26;8.27;;;5.72;;
26864;SDS011;40618;51.166;10.322;2024-01-30T13:11:52;7.60;;;4.93;;
26864;SDS011;40618;51.166;10.322;2024-01-30T13:14:18;11.70;;;6.32;;
26864;SDS011;40618;51.166;10.322;2024-01-30T13:16:44;8.30;;;5.97;;
26864;SDS011;40618;51.166;10.322;2024-01-30T13:19:10;7.95;;;5.22;;
26864;SDS011;40618;51.166;10.322;2024-01-30T13:21:35;7.18;;;4.82;;
26864;SDS011;40618;51.166;10.322;2024-01-30T13:24:01;9.82;;;5.35;;
26864;SDS011;40618;51.166;10.322;2024-01-30T13:26:27;8.65;;;5.47;;
26864;SDS011;40618;51.166;10.322;2024-01-30T13:28:53;8.90;;;5.88;;
26864;SDS011;40618;51.166;10.322;2024-01-30T13:31:19;9.25;;;5.50;;
26864;SDS011;40618;51.166;10.322;2024-01-30T13:33:45;8.65;;;5.50;;
26864;SDS011;40618;51.166;10.322;2024-01-30T13:36:11;11.07;;;5.93;;
26864;SDS011;40618;51.166;10.322;2024-01-30T13:38:37;11.43;;;6.13;;
26864;SDS011;40618;51.166;10.322;2024-01-30T13:41:04;8.27;;;6.03;;
26864;SDS011;40618;51.166;10.322;2024-01-30T13:43:29;8.30;;;5.70;;
26864;SDS011;40618;51.166;10.322;2024-01-30T13:45:55;10.50;;;7.53;;
26864;SDS011;40618;51.166;10.322;2024-01-30T13:48:21;10.68;;;6.80;;
26864;SDS011;40618;51.166;10.322;2024-01-30T13:50:47;8.45;;;5.53;;
26864;SDS011;40618;51.166;10.322;2024-01-30T13:53:13;9.73;;;5.78;;
26864;SDS011;40618;51.166;10.322;2024-01-30T13:55:39;8.27;;;6.25;;
26864;SDS011;40618;51.166;10.322;2024-01-30T13:58:05;11.77;;;7.03;;
26864;SDS011;40618;51.166;10.322;2024-01-30T14:00:31;10.00;;;6.55;;
26864;SDS011;40618;51.166;10.322;2024-01-30T14:02:58;14.27;;;7.55;;
26864;SDS011;40618;51.166;10.322;2024-01-30T14:05:24;13.45;;;8.32;;
26864;SDS011;40618;51.166;10.322;2024-01-30T14:07:54;15.25;;;7.45;;
26864;SDS011;40618;51.166;10.322;2024-01-30T14:12:47;9.95;;;6.80;;
26864;SDS011;40618;51.166;10.322;2024-01-30T14:15:13;16.27;;;8.35;;
26864;SDS011;40618;51.166;10.322;2024-01-30T14:17:46;10.13;;;6.05;;
26864;SDS011;40618;51.166;10.322;2024-01-30T14:20:13;9.18;;;6.40;;
26864;SDS011;40618;51.166;10.322;2024-01-30T14:22:41;9.70;;;6.75;;
26864;SDS011;40618;51.166;10.322;2024-01-30T14:25:07;9.73;;;5.88;;
26864;SDS011;40618;51.166;10.322;2024-01-30T14:27:34;15.07;;;8.63;;
26864;SDS011;40618;51.166;10.322;2024-01-30T14:30:01;12.50;;;7.45;;
26864;SDS011;40618;51.166;10.322;2024-01-30T14:32:28;10.05;;;6.35;;
26864;SDS011;40618;51.166;10.322;2024-01-30T14:34:54;7.70;;;6.05;;